createdAt,value
2018-08-11T00:01:03.833Z,18.30
2018-08-11T00:03:34.850Z,18.40
2018-08-11T00:06:03.348Z,18.50
2018-08-11T00:08:31.837Z,18.50
2018-08-11T00:11:00.323Z,18.40
2018-08-11T00:13:28.815Z,18.40
2018-08-11T00:15:57.282Z,18.50
2018-08-11T00:18:25.770Z,18.40
2018-08-11T00:20:54.260Z,18.40
2018-08-11T00:23:22.753Z,18.40
2018-08-11T00:25:51.616Z,18.30
2018-08-11T00:28:20.594Z,18.30
2018-08-11T00:30:49.099Z,18.30
2018-08-11T00:33:17.584Z,18.20
2018-08-11T00:35:47.049Z,18.10
2018-08-11T00:38:15.534Z,18.10
2018-08-11T00:40:44.344Z,18.10
2018-08-11T00:43:12.816Z,18.10
2018-08-11T00:45:41.290Z,18.10
2018-08-11T00:50:52.632Z,18.20
2018-08-11T00:53:21.129Z,18.20
2018-08-11T00:55:49.603Z,18.30
2018-08-11T00:58:18.445Z,18.40
2018-08-11T01:00:46.924Z,18.40
2018-08-11T01:03:16.084Z,18.50
2018-08-11T01:05:45.224Z,18.40
2018-08-11T01:08:13.692Z,18.40
2018-08-11T01:10:42.188Z,18.40
2018-08-11T01:13:11.333Z,18.50
2018-08-11T01:15:39.809Z,18.50
2018-08-11T01:18:08.953Z,18.40
2018-08-11T01:20:37.459Z,18.30
2018-08-11T01:23:05.955Z,18.30
2018-08-11T01:25:34.781Z,18.40
2018-08-11T01:28:03.275Z,18.40
2018-08-11T01:30:31.781Z,18.40
2018-08-11T01:33:00.929Z,18.40
2018-08-11T01:35:29.742Z,18.40
2018-08-11T01:37:58.569Z,18.40
2018-08-11T01:40:27.041Z,18.40
2018-08-11T01:42:56.223Z,18.30
2018-08-11T01:45:25.062Z,18.30
2018-08-11T01:47:53.877Z,18.20
2018-08-11T01:50:22.345Z,18.30
2018-08-11T01:52:51.182Z,18.20
2018-08-11T01:55:19.709Z,18.10
2018-08-11T01:57:48.247Z,18.00
2018-08-11T02:00:17.429Z,17.90
2018-08-11T02:02:46.263Z,17.90
2018-08-11T02:05:14.761Z,17.90
2018-08-11T02:07:43.989Z,17.90
2018-08-11T02:10:15.385Z,17.90
2018-08-11T02:12:44.513Z,17.90
2018-08-11T02:15:13.920Z,17.80
2018-08-11T02:17:42.763Z,17.70
2018-08-11T02:20:13.770Z,17.70
2018-08-11T02:22:43.881Z,17.60
2018-08-11T02:25:12.431Z,17.50
2018-08-11T02:27:41.273Z,17.50
2018-08-11T02:30:12.101Z,17.60
2018-08-11T02:32:41.182Z,17.60
2018-08-11T02:35:10.898Z,17.70
2018-08-11T02:37:39.965Z,17.70
2018-08-11T02:40:10.342Z,17.50
2018-08-11T02:42:38.814Z,17.40
2018-08-11T02:45:08.368Z,17.30
2018-08-11T02:47:37.048Z,17.40
2018-08-11T02:50:07.434Z,17.40
2018-08-11T02:52:36.057Z,17.20
2018-08-11T02:55:04.813Z,17.10
2018-08-11T02:57:33.961Z,17.00
2018-08-11T03:00:02.824Z,17.00
2018-08-11T03:02:31.826Z,17.10
2018-08-11T03:05:00.446Z,17.00
2018-08-11T03:07:29.221Z,17.00
2018-08-11T03:09:58.068Z,16.90
2018-08-11T03:12:26.554Z,16.90
2018-08-11T03:14:55.759Z,17.10
2018-08-11T03:17:24.603Z,17.10
2018-08-11T03:19:53.473Z,17.10
2018-08-11T03:22:22.271Z,17.10
2018-08-11T03:24:51.458Z,17.10
2018-08-11T03:27:22.085Z,17.10
2018-08-11T03:29:51.121Z,17.10
2018-08-11T03:32:19.947Z,17.20
2018-08-11T03:34:48.778Z,17.30
2018-08-11T03:37:17.952Z,17.20
2018-08-11T03:39:47.185Z,17.20
2018-08-11T03:42:15.704Z,17.30
2018-08-11T03:44:44.558Z,17.40
2018-08-11T03:47:13.996Z,17.50
2018-08-11T03:49:44.149Z,17.40
2018-08-11T03:52:13.688Z,17.40
2018-08-11T03:54:42.510Z,17.30
2018-08-11T03:57:11.001Z,17.30
2018-08-11T03:59:39.501Z,17.00
2018-08-11T04:02:07.995Z,16.80
2018-08-11T04:04:37.841Z,17.00
2018-08-11T04:07:06.880Z,17.00
2018-08-11T04:09:35.509Z,17.00
2018-08-11T04:12:05.333Z,16.80
2018-08-11T04:14:35.161Z,17.00
2018-08-11T04:17:03.632Z,17.10
2018-08-11T04:19:32.133Z,17.00
2018-08-11T04:22:00.933Z,16.90
2018-08-11T04:24:29.659Z,16.80
2018-08-11T04:26:58.144Z,16.90
2018-08-11T04:29:27.600Z,16.90
2018-08-11T04:31:56.654Z,16.90
2018-08-11T04:34:25.462Z,17.00
2018-08-11T04:36:53.952Z,17.00
2018-08-11T04:39:22.446Z,16.90
2018-08-11T04:41:51.634Z,17.00
2018-08-11T04:44:21.131Z,17.10
2018-08-11T04:46:50.282Z,17.20
2018-08-11T04:49:19.744Z,17.30
2018-08-11T04:51:48.238Z,17.40
2018-08-11T04:54:16.740Z,17.30
2018-08-11T05:03:44.232Z,17.40
2018-08-11T05:06:13.061Z,17.40
2018-08-11T05:08:41.800Z,17.40
2018-08-11T05:11:10.632Z,17.30
2018-08-11T05:13:39.453Z,17.30
2018-08-11T05:16:07.952Z,17.20
2018-08-11T05:25:37.166Z,17.30
2018-08-11T05:28:07.002Z,17.50
2018-08-11T05:30:36.185Z,17.70
2018-08-11T05:33:05.941Z,17.70
2018-08-11T05:35:34.805Z,17.60
2018-08-11T05:38:03.309Z,17.60
2018-08-11T05:40:32.152Z,17.60
2018-08-11T05:43:01.015Z,17.60
2018-08-11T05:45:29.520Z,17.50
2018-08-11T05:47:58.394Z,17.50
2018-08-11T05:50:26.925Z,17.50
2018-08-11T05:52:56.937Z,17.60
2018-08-11T05:55:25.777Z,17.60
2018-08-11T05:57:54.621Z,17.70
2018-08-11T06:00:34.363Z,17.70
2018-08-11T06:03:17.664Z,17.80
2018-08-11T06:05:47.928Z,17.80
2018-08-11T06:08:18.417Z,17.70
2018-08-11T06:10:47.997Z,17.80
2018-08-11T06:13:34.957Z,17.90
2018-08-11T06:16:03.492Z,18.20
2018-08-11T06:18:32.309Z,18.30
2018-08-11T06:21:00.854Z,18.20
2018-08-11T06:23:30.377Z,18.40
2018-08-11T06:25:59.549Z,18.30
2018-08-11T06:28:28.368Z,18.30
2018-08-11T06:30:57.734Z,18.20
2018-08-11T06:33:26.608Z,18.20
2018-08-11T06:35:56.427Z,18.40
2018-08-11T06:42:02.831Z,18.80
2018-08-11T06:44:31.694Z,18.90
2018-08-11T06:47:01.047Z,18.90
2018-08-11T06:49:29.521Z,18.90
2018-08-11T06:51:58.336Z,19.00
2018-08-11T06:54:27.198Z,18.90
2018-08-11T06:56:55.730Z,18.80
2018-08-11T06:59:24.561Z,18.90
2018-08-11T07:01:53.053Z,19.00
2018-08-11T07:04:21.673Z,19.20
2018-08-11T07:06:50.642Z,19.40
2018-08-11T07:09:20.134Z,19.50
2018-08-11T07:11:49.825Z,19.50
2018-08-11T07:14:18.847Z,19.70
2018-08-11T07:16:48.390Z,19.80
2018-08-11T07:19:17.211Z,20.00
2018-08-11T07:21:46.877Z,20.10
2018-08-11T07:24:15.812Z,20.40
2018-08-11T07:26:44.335Z,20.50
2018-08-11T07:29:13.385Z,20.60
2018-08-11T07:31:42.226Z,20.70
2018-08-11T07:34:11.924Z,20.90
2018-08-11T07:36:40.500Z,21.10
2018-08-11T07:39:10.577Z,21.30
2018-08-11T07:41:39.828Z,21.40
2018-08-11T07:44:08.332Z,21.60
2018-08-11T07:46:37.181Z,21.70
2018-08-11T07:49:07.061Z,21.90
2018-08-11T07:51:36.347Z,22.20
2018-08-11T07:54:05.182Z,22.20
2018-08-11T07:56:37.231Z,22.30
2018-08-11T07:59:05.741Z,22.40
2018-08-11T08:01:34.538Z,22.40
2018-08-11T08:04:03.073Z,22.50
2018-08-11T08:06:31.904Z,22.50
2018-08-11T08:09:01.137Z,22.50
2018-08-11T08:11:30.537Z,22.50
2018-08-11T08:14:00.159Z,22.50
2018-08-11T08:16:30.429Z,22.60
2018-08-11T08:19:00.683Z,22.60
2018-08-11T08:21:29.187Z,22.60
2018-08-11T08:23:58.020Z,22.60
2018-08-11T08:26:27.083Z,22.70
2018-08-11T08:28:56.979Z,23.00
2018-08-11T08:31:26.538Z,23.20
2018-08-11T08:33:55.373Z,23.30
2018-08-11T08:36:23.738Z,23.40
2018-08-11T08:38:52.568Z,23.40
2018-08-11T08:41:21.109Z,23.50
2018-08-11T08:43:50.161Z,23.60
2018-08-11T08:46:18.446Z,23.60
2018-08-11T08:48:46.890Z,23.70
2018-08-11T08:51:15.527Z,23.60
2018-08-11T08:53:44.673Z,23.50
2018-08-11T08:56:13.184Z,23.40
2018-08-11T08:58:42.031Z,23.40
2018-08-11T09:01:10.882Z,23.50
2018-08-11T09:03:40.073Z,23.50
2018-08-11T09:06:11.026Z,23.60
2018-08-11T09:08:42.437Z,23.70
2018-08-11T09:11:13.810Z,23.70
2018-08-11T09:13:47.794Z,23.80
2018-08-11T09:16:16.632Z,23.90
2018-08-11T09:18:45.889Z,24.00
2018-08-11T09:21:14.734Z,24.30
2018-08-11T09:23:43.421Z,24.30
2018-08-11T09:26:11.982Z,24.30
2018-08-11T09:28:41.205Z,24.20
2018-08-11T09:31:09.699Z,24.10
2018-08-11T09:33:38.285Z,24.00
2018-08-11T09:36:07.037Z,24.00
2018-08-11T09:38:36.125Z,23.90
2018-08-11T09:41:04.396Z,24.00
2018-08-11T09:43:33.140Z,24.00
2018-08-11T09:46:14.343Z,24.20
2018-08-11T09:48:43.430Z,24.40
2018-08-11T09:51:12.508Z,24.40
2018-08-11T09:53:41.118Z,24.30
2018-08-11T09:56:10.505Z,24.20
2018-08-11T09:58:39.070Z,24.40
2018-08-11T10:01:13.409Z,24.40
2018-08-11T10:03:41.642Z,24.70
2018-08-11T10:06:10.244Z,25.00
2018-08-11T10:08:39.784Z,25.30
2018-08-11T10:11:08.135Z,25.40
2018-08-11T10:13:37.321Z,25.60
2018-08-11T10:16:05.545Z,25.80
2018-08-11T10:18:34.179Z,26.00
2018-08-11T10:21:02.912Z,26.10
2018-08-11T10:23:31.824Z,26.30
2018-08-11T10:26:03.142Z,26.40
2018-08-11T10:28:32.341Z,26.60
2018-08-11T10:31:00.953Z,26.60
2018-08-11T10:33:29.856Z,26.70
2018-08-11T10:35:58.379Z,26.80
2018-08-11T10:38:27.319Z,27.00
2018-08-11T10:40:55.563Z,27.20
2018-08-11T10:43:26.963Z,27.30
2018-08-11T10:45:55.524Z,27.50
2018-08-11T10:48:23.744Z,27.40
2018-08-11T10:50:52.802Z,27.20
2018-08-11T10:53:21.027Z,26.90
2018-08-11T10:55:49.619Z,26.60
2018-08-11T10:58:23.858Z,26.20
2018-08-11T11:00:56.740Z,26.10
2018-08-11T11:03:26.665Z,26.20
2018-08-11T11:05:54.899Z,26.10
2018-08-11T11:08:24.388Z,26.00
2018-08-11T11:10:54.033Z,26.10
2018-08-11T11:13:22.926Z,26.10
2018-08-11T11:15:51.492Z,26.20
2018-08-11T11:18:20.061Z,26.00
2018-08-11T11:20:48.491Z,25.90
2018-08-11T11:23:18.712Z,26.00
2018-08-11T11:25:47.272Z,26.10
2018-08-11T11:28:17.981Z,26.40
2018-08-11T11:30:46.866Z,26.40
2018-08-11T11:33:15.383Z,26.40
2018-08-11T11:35:43.952Z,26.50
2018-08-11T11:38:12.259Z,26.70
2018-08-11T11:40:41.081Z,26.80
2018-08-11T11:43:10.413Z,26.60
2018-08-11T11:45:38.957Z,26.70
2018-08-11T11:48:07.883Z,26.60
2018-08-11T11:50:36.116Z,26.50
2018-08-11T11:53:11.923Z,26.40
2018-08-11T11:55:40.550Z,26.30
2018-08-11T11:58:10.310Z,26.00
2018-08-11T12:00:38.512Z,26.00
2018-08-11T12:03:07.751Z,25.90
2018-08-11T12:05:36.300Z,25.80
2018-08-11T12:08:04.553Z,25.70
2018-08-11T12:10:33.094Z,26.10
2018-08-11T12:14:25.892Z,26.40
2018-08-11T12:16:54.101Z,26.30
2018-08-11T12:19:22.664Z,26.10
2018-08-11T12:21:52.837Z,26.20
2018-08-11T12:24:25.986Z,26.50
2018-08-11T12:26:54.569Z,26.90
2018-08-11T12:29:23.150Z,27.20
2018-08-11T12:31:52.260Z,27.50
2018-08-11T12:34:21.985Z,27.70
2018-08-11T12:36:50.248Z,27.90
2018-08-11T12:39:18.622Z,28.10
2018-08-11T12:41:46.849Z,28.40
2018-08-11T12:44:15.738Z,28.50
2018-08-11T12:46:45.067Z,28.70
2018-08-11T13:07:41.796Z,27.60
2018-08-11T13:19:16.010Z,28.10
2018-08-11T13:21:45.449Z,28.30
2018-08-11T13:24:14.002Z,28.30
2018-08-11T13:26:42.229Z,28.30
2018-08-11T13:29:11.024Z,28.10
2018-08-11T13:31:39.610Z,27.80
2018-08-11T13:34:07.849Z,27.60
2018-08-11T13:36:36.090Z,27.60
2018-08-11T13:39:06.929Z,27.80
2018-08-11T13:41:40.306Z,28.00
2018-08-11T13:44:08.885Z,27.90
2018-08-11T13:46:37.899Z,28.10
2018-08-11T13:49:06.378Z,28.30
2018-08-11T13:51:34.973Z,28.10
2018-08-11T13:54:03.662Z,28.30
2018-08-11T13:56:32.557Z,28.20
2018-08-11T13:59:00.802Z,28.50
2018-08-11T14:01:29.089Z,28.40
2018-08-11T14:03:57.762Z,28.40
2018-08-11T14:06:26.920Z,28.10
2018-08-11T14:08:55.157Z,28.20
2018-08-11T14:11:24.110Z,28.30
2018-08-11T14:13:52.382Z,28.10
2018-08-11T14:16:21.842Z,27.90
2018-08-11T14:18:50.090Z,27.90
2018-08-11T14:21:18.668Z,28.20
2018-08-11T14:23:46.939Z,28.10
2018-08-11T14:26:15.506Z,28.00
2018-08-11T14:28:44.418Z,28.10
2018-08-11T14:31:12.981Z,28.30
2018-08-11T14:33:41.909Z,28.50
2018-08-11T14:36:10.905Z,28.40
2018-08-11T14:38:39.184Z,28.00
2018-08-11T14:41:07.524Z,27.70
2018-08-11T14:43:35.735Z,27.70
2018-08-11T14:46:03.972Z,27.80
2018-08-11T14:48:32.206Z,27.90
2018-08-11T14:51:01.105Z,27.80
2018-08-11T14:53:29.913Z,27.70
2018-08-11T14:55:58.477Z,27.70
2018-08-11T15:01:17.827Z,27.80
2018-08-11T15:03:46.613Z,27.80
2018-08-11T15:06:15.186Z,27.60
2018-08-11T15:08:43.413Z,27.60
2018-08-11T15:11:11.972Z,27.70
2018-08-11T15:13:40.591Z,27.60
2018-08-11T15:16:08.845Z,27.50
2018-08-11T15:18:37.252Z,27.60
2018-08-11T15:21:05.492Z,27.40
2018-08-11T15:23:33.770Z,27.70
2018-08-11T15:26:02.681Z,27.80
2018-08-11T15:28:31.254Z,27.80
2018-08-11T15:30:59.821Z,27.60
2018-08-11T15:33:28.466Z,27.50
2018-08-11T15:35:57.169Z,27.50
2018-08-11T15:38:26.289Z,27.40
2018-08-11T15:40:54.964Z,27.30
2018-08-11T15:43:23.522Z,27.30
2018-08-11T15:45:51.754Z,27.20
2018-08-11T15:48:20.645Z,27.30
2018-08-11T15:50:48.933Z,27.30
2018-08-11T15:53:17.582Z,27.40
2018-08-11T15:55:46.516Z,27.30
2018-08-11T15:58:14.745Z,27.20
2018-08-11T16:00:42.981Z,27.20
2018-08-11T16:03:11.642Z,27.10
2018-08-11T16:05:40.341Z,26.90
2018-08-11T16:08:08.906Z,26.80
2018-08-11T16:10:37.225Z,26.80
2018-08-11T16:13:05.751Z,26.70
2018-08-11T16:15:34.331Z,26.60
2018-08-11T16:18:02.619Z,26.50
2018-08-11T16:20:31.185Z,26.40
2018-08-11T16:23:00.557Z,26.30
2018-08-11T16:25:29.133Z,26.30
2018-08-11T16:27:57.660Z,26.20
2018-08-11T16:30:26.262Z,26.40
2018-08-11T16:32:54.824Z,26.20
2018-08-11T16:35:23.375Z,26.20
2018-08-11T16:37:51.932Z,26.10
2018-08-11T16:40:20.832Z,26.20
2018-08-11T16:42:49.390Z,26.00
2018-08-11T16:45:18.086Z,25.80
2018-08-11T16:47:46.318Z,25.80
2018-08-11T16:50:14.963Z,25.80
2018-08-11T16:52:43.281Z,25.80
2018-08-11T16:55:11.554Z,25.60
2018-08-11T16:57:39.788Z,25.60
2018-08-11T17:00:11.295Z,25.50
2018-08-11T17:02:39.668Z,25.40
2018-08-11T17:05:08.350Z,25.40
2018-08-11T17:07:37.463Z,25.30
2018-08-11T17:10:07.337Z,25.20
2018-08-11T17:12:35.901Z,25.20
2018-08-11T17:15:04.145Z,25.30
2018-08-11T17:17:32.392Z,25.20
2018-08-11T17:20:01.361Z,25.20
2018-08-11T17:22:29.634Z,25.00
2018-08-11T17:24:59.212Z,25.10
2018-08-11T17:27:28.032Z,25.00
2018-08-11T17:29:56.710Z,25.00
2018-08-11T17:32:25.439Z,24.90
2018-08-11T17:34:54.584Z,24.90
2018-08-11T17:37:22.856Z,24.90
2018-08-11T17:39:52.757Z,24.90
2018-08-11T17:42:21.017Z,24.80
2018-08-11T17:44:50.729Z,24.60
2018-08-11T17:47:18.993Z,24.60
2018-08-11T17:49:47.240Z,24.50
2018-08-11T17:52:15.621Z,24.60
2018-08-11T17:54:45.134Z,24.50
2018-08-11T17:57:13.734Z,24.40
2018-08-11T17:59:42.866Z,24.40
2018-08-11T18:02:11.498Z,24.30
2018-08-11T18:04:40.801Z,24.40
2018-08-11T18:07:09.997Z,24.40
2018-08-11T18:09:40.150Z,24.20
2018-08-11T18:12:08.748Z,24.10
2018-08-11T18:14:37.127Z,24.00
2018-08-11T18:17:05.947Z,23.90
2018-08-11T18:19:34.655Z,23.90
2018-08-11T18:22:03.045Z,23.90
2018-08-11T18:24:31.298Z,23.80
2018-08-11T18:26:59.630Z,23.80
2018-08-11T18:29:28.017Z,23.80
2018-08-11T18:31:56.738Z,23.60
2018-08-11T18:34:27.980Z,23.70
2018-08-11T18:36:57.166Z,23.70
2018-08-11T18:39:25.402Z,23.60
2018-08-11T18:41:53.626Z,23.50
2018-08-11T18:44:22.088Z,23.50
2018-08-11T18:46:51.042Z,23.40
2018-08-11T18:49:19.861Z,23.40
2018-08-11T18:51:48.142Z,23.30
2018-08-11T18:54:16.717Z,23.20
2018-08-11T18:56:44.969Z,23.20
2018-08-11T18:59:13.407Z,23.30
2018-08-11T19:01:42.233Z,23.10
2018-08-11T19:04:10.841Z,23.00
2018-08-11T19:06:40.606Z,23.00
2018-08-11T19:09:12.018Z,23.00
2018-08-11T19:11:41.977Z,22.90
2018-08-11T19:14:11.188Z,22.90
2018-08-11T19:16:41.934Z,22.80
2018-08-11T19:19:10.573Z,22.70
2018-08-11T19:21:39.463Z,22.70
2018-08-11T19:24:08.788Z,22.50
2018-08-11T19:26:37.765Z,22.50
2018-08-11T19:29:06.504Z,22.40
2018-08-11T19:31:35.581Z,22.40
2018-08-11T19:34:04.074Z,22.40
2018-08-11T19:36:32.857Z,22.40
2018-08-11T19:39:01.441Z,22.30
2018-08-11T19:41:30.842Z,22.40
2018-08-11T19:43:59.430Z,22.40
2018-08-11T19:46:28.280Z,22.30
2018-08-11T19:48:57.667Z,22.20
2018-08-11T19:51:26.507Z,22.10
2018-08-11T19:53:55.391Z,22.10
2018-08-11T19:56:24.334Z,22.10
2018-08-11T19:58:52.844Z,22.30
2018-08-11T20:01:21.184Z,22.40
2018-08-11T20:03:50.252Z,22.60
2018-08-11T20:06:18.761Z,22.60
2018-08-11T20:08:47.830Z,22.70
2018-08-11T20:11:16.704Z,22.70
2018-08-11T20:13:45.533Z,22.70
2018-08-11T20:16:14.705Z,22.70
2018-08-11T20:18:43.958Z,22.70
2018-08-11T20:21:12.500Z,22.70
2018-08-11T20:23:40.999Z,22.70
2018-08-11T20:26:09.488Z,22.60
2018-08-11T20:28:37.717Z,22.70
2018-08-11T20:31:06.631Z,22.70
2018-08-11T20:33:35.910Z,22.70
2018-08-11T20:36:04.504Z,22.70
2018-08-11T20:38:33.017Z,22.60
2018-08-11T20:41:01.853Z,22.60
2018-08-11T20:43:30.837Z,22.60
2018-08-11T20:45:59.696Z,22.50
2018-08-11T20:48:28.515Z,22.50
2018-08-11T20:50:57.370Z,22.40
2018-08-11T20:53:25.600Z,22.40
2018-08-11T20:55:54.433Z,22.40
2018-08-11T20:58:23.657Z,22.20
2018-08-11T21:00:52.489Z,22.10
2018-08-11T21:03:21.310Z,22.10
2018-08-11T21:05:50.113Z,22.10
2018-08-11T21:08:18.616Z,22.00
2018-08-11T21:10:47.478Z,22.00
2018-08-11T21:13:17.519Z,21.80
2018-08-11T21:15:46.018Z,21.70
2018-08-11T21:18:14.960Z,21.60
2018-08-11T21:20:44.545Z,21.70
2018-08-11T21:23:13.406Z,21.60
2018-08-11T21:25:41.944Z,21.50
2018-08-11T21:28:10.777Z,21.50
2018-08-11T21:30:46.461Z,21.50
2018-08-11T21:33:15.298Z,21.40
2018-08-11T21:35:43.796Z,21.40
2018-08-11T21:38:13.349Z,21.50
2018-08-11T21:40:41.890Z,21.60
2018-08-11T21:43:11.563Z,21.50
2018-08-11T21:45:40.756Z,21.40
2018-08-11T21:48:09.251Z,21.30
2018-08-11T21:50:38.100Z,21.30
2018-08-11T21:53:07.261Z,21.20
2018-08-11T21:55:36.425Z,21.10
2018-08-11T21:58:05.277Z,21.10
2018-08-11T22:00:35.368Z,21.00
2018-08-11T22:03:04.590Z,21.00
2018-08-11T22:05:34.159Z,20.90
2018-08-11T22:08:03.171Z,20.90
2018-08-11T22:10:33.453Z,21.00
2018-08-11T22:17:50.508Z,21.00
2018-08-11T22:20:19.885Z,20.90
2018-08-11T22:22:50.822Z,20.90
2018-08-11T22:25:19.670Z,20.80
2018-08-11T22:27:49.458Z,20.80
2018-08-11T22:30:17.949Z,20.70
2018-08-11T22:32:47.148Z,20.70
2018-08-11T22:35:16.662Z,20.70
2018-08-11T22:37:45.642Z,20.80
2018-08-11T22:40:14.166Z,20.80
2018-08-11T22:42:43.000Z,20.90
2018-08-11T22:45:12.690Z,20.90
2018-08-11T22:47:41.506Z,20.80
2018-08-11T22:50:11.758Z,20.80
2018-08-11T22:52:40.603Z,20.50
2018-08-11T22:55:09.905Z,20.20
2018-08-11T22:57:38.386Z,20.20
2018-08-11T23:00:18.190Z,20.20
2018-08-11T23:02:46.679Z,20.30
2018-08-11T23:05:17.683Z,20.40
2018-08-11T23:07:46.561Z,20.40
2018-08-11T23:10:16.872Z,20.50
2018-08-11T23:12:46.341Z,20.40
2018-08-11T23:15:16.612Z,20.40
2018-08-11T23:17:46.392Z,20.20
2018-08-11T23:20:15.761Z,20.00
2018-08-11T23:22:44.398Z,20.00
2018-08-11T23:25:13.938Z,19.90
2018-08-11T23:27:42.764Z,19.90
2018-08-11T23:30:12.673Z,19.90
2018-08-11T23:32:41.984Z,19.90
2018-08-11T23:35:10.776Z,19.90
2018-08-11T23:37:39.934Z,19.80
2018-08-11T23:40:09.307Z,19.70
2018-08-11T23:42:37.941Z,19.60
2018-08-11T23:45:11.605Z,19.40
2018-08-11T23:47:40.937Z,19.50
2018-08-11T23:50:10.253Z,19.60
2018-08-11T23:52:39.136Z,19.80
2018-08-11T23:55:09.726Z,19.90
2018-08-11T23:57:38.531Z,19.80
